• Join FlightAware (Why Join?)
  • Login
  • US Flag 
08:16AM EST


 

Airport Tracker/Info


-or-


 

Live Flight TrackerFlight Track Log ✈ N373LD ✈ 18-Sep-2013 ✈ KABR - KMLS

Flight Track Log - Related Links

Times and Time Zones

All times are in EDT time to prevent confusion due to time zone crossing. See the N373LD flight status page for this flight to view local times or setup timezone preferences in your user account.

Time Position Orientation Groundspeed Altitude Reporting Facility
EDT Latitude Longitude Course Direction KTS MPH feet Rate Location/Type
01:29PM 45.4111 -98.5314 291° West 144 166 5,000  Level Minneapolis Center
01:30PM 45.4189 -98.5939 280° West 153 176 6,100 1,140 Climbing Minneapolis Center
01:31PM 45.4286 -98.6539 283° West 156 180 7,400 1,200 Climbing Minneapolis Center
01:32PM 45.4408 -98.7242 284° West 154 177 8,700 1,140 Climbing Minneapolis Center
01:33PM 45.4508 -98.7836 284° West 154 177 9,800 1,020 Climbing Minneapolis Center
01:34PM 45.4622 -98.8444 285° West 157 181 10,900 1,020 Climbing Minneapolis Center
01:35PM 45.4722 -98.9061 283° West 159 183 12,000 960 Climbing Minneapolis Center
01:36PM 45.4831 -98.9661 284° West 157 181 13,000 960 Climbing Minneapolis Center
01:37PM 45.4928 -99.0275 283° West 158 182 14,000 1,080 Climbing Minneapolis Center
01:38PM 45.5047 -99.1011 283° West 159 183 15,300 1,080 Climbing Minneapolis Center
01:39PM 45.5158 -99.1617 285° West 158 182 16,300 960 Climbing Minneapolis Center
01:40PM 45.5261 -99.2242 283° West 161 185 17,400 1,080 Climbing Minneapolis Center
01:41PM 45.5367 -99.2903 283° West 167 192 18,600 1,080 Climbing Minneapolis Center
01:42PM 45.5481 -99.3569 284° West 171 197 19,700 960 Climbing Minneapolis Center
01:43PM 45.5589 -99.4228 283° West 172 198 20,700 960 Climbing Minneapolis Center
01:44PM 45.5722 -99.5042 283° West 174 200 21,800 960 Climbing Minneapolis Center
01:45PM 45.5839 -99.5722 284° West 177 204 22,800 900 Climbing Minneapolis Center
01:46PM 45.5953 -99.6406 283° West 177 204 23,700 840 Climbing Minneapolis Center
01:47PM 45.6061 -99.7106 282° West 180 207 24,600 780 Climbing Minneapolis Center
01:48PM 45.6175 -99.7836 283° West 185 213 25,400 660 Climbing Minneapolis Center
01:49PM 45.6328 -99.8736 284° West 192 221 26,000 240 Climbing Minneapolis Center
01:50PM 45.6461 -99.9583 283° West 207 238 26,000  Level Minneapolis Center
01:52PM 45.6617 -100.0492 284° West 229 264 26,000  Level Minneapolis Center
01:53PM 45.6756 -100.1400 282° West 234 269 26,000  Level Minneapolis Center
01:54PM 45.6892 -100.2294 282° West 232 267 26,000  Level Minneapolis Center
01:55PM 45.7031 -100.3186 283° West 232 267 26,000  Level Minneapolis Center
01:56PM 45.7186 -100.4239 282° West 227 261 26,000  Level Minneapolis Center
01:57PM 45.7325 -100.5122 283° West 228 262 26,000  Level Minneapolis Center
01:58PM 45.7461 -100.5997 283° West 227 261 26,000  Level Minneapolis Center
01:59PM 45.7597 -100.6875 283° West 227 261 26,000  Level Minneapolis Center
02:00PM 45.7733 -100.7778 282° West 230 265 26,000  Level Minneapolis Center
02:01PM 45.7897 -100.8842 282° West 230 265 26,000  Level Minneapolis Center
02:02PM 45.8036 -100.9731 283° West 230 265 26,000  Level Minneapolis Center
02:03PM 45.8158 -101.0608 281° West 227 261 26,000  Level Minneapolis Center
02:04PM 45.8294 -101.1492 282° West 227 261 26,000  Level Minneapolis Center
02:05PM 45.8419 -101.2372 282° West 226 260 26,000  Level Minneapolis Center
02:06PM 45.8556 -101.3250 283° West 226 260 26,000  Level Minneapolis Center
02:07PM 45.8697 -101.4303 281° West 225 259 26,000  Level Minneapolis Center
02:08PM 45.8836 -101.5167 283° West 224 258 26,000  Level Minneapolis Center
02:09PM 45.8961 -101.6056 281° West 226 260 26,000  Level Minneapolis Center
02:10PM 45.9083 -101.6936 281° West 226 260 26,000  Level Minneapolis Center
02:11PM 45.9211 -101.7822 282° West 227 261 26,000  Level Minneapolis Center
02:12PM 45.9344 -101.8708 282° West 227 261 26,000  Level Minneapolis Center
02:13PM 45.9492 -101.9772 281° West 227 261 26,000  Level Minneapolis Center
02:14PM 45.9614 -102.0661 281° West 227 261 26,000  Level Minneapolis Center
02:15PM 45.9742 -102.1539 282° West 226 260 26,000  Level Minneapolis Center
02:16PM 45.9869 -102.2417 282° West 225 259 26,000  Level Minneapolis Center
02:17PM 45.9981 -102.3300 280° West 226 260 26,000  Level Minneapolis Center
02:18PM 46.0100 -102.4178 281° West 224 258 26,000  Level Minneapolis Center
02:19PM 46.0250 -102.5192 282° West 220 253 26,000  Level Minneapolis Center
02:20PM 46.0375 -102.6044 282° West 219 252 26,000  Level Minneapolis Center
02:22PM 46.0478 -102.6906 280° West 219 252 26,000  Level Minneapolis Center
02:23PM 46.0592 -102.7786 281° West 218 251 26,000  Level Minneapolis Center
02:24PM 46.0711 -102.8647 281° West 219 252 26,000  Level Minneapolis Center
02:25PM 46.0817 -102.9519 280° West 221 254 26,000  Level Minneapolis Center
02:26PM 46.0947 -103.0375 282° West 220 253 26,000  Level Minneapolis Center
02:27PM 46.1053 -103.1222 280° West 217 250 26,000  Level Minneapolis Center
02:28PM 46.1142 -103.2072 279° West 219 252 26,000  Level Salt Lake Center
02:29PM 46.1253 -103.2917 281° West 218 251 26,000  Level Salt Lake Center
02:30PM 46.1358 -103.3761 280° West 217 250 26,000  Level Salt Lake Center
02:31PM 46.1472 -103.4611 281° West 216 249 26,000  Level Salt Lake Center
02:32PM 46.1575 -103.5483 280° West 217 250 26,000  Level Salt Lake Center
02:33PM 46.1714 -103.6514 281° West 219 252 26,000  Level Salt Lake Center
02:34PM 46.1819 -103.7372 280° West 218 251 26,000  Level Salt Lake Center
02:35PM 46.1925 -103.8222 280° West 217 250 26,000  Level Salt Lake Center
02:36PM 46.2025 -103.9083 280° West 217 250 26,000  Level Salt Lake Center
02:37PM 46.2125 -103.9936 280° West 217 250 26,000  Level Salt Lake Center
02:38PM 46.2236 -104.0792 281° West 217 250 26,000  Level Salt Lake Center
02:39PM 46.2347 -104.1817 279° West 216 249 26,000  Level Salt Lake Center
02:40PM 46.2456 -104.2672 280° West 216 249 26,000  Level Salt Lake Center
02:41PM 46.2556 -104.3503 280° West 215 247 26,000  Level Salt Lake Center
02:42PM 46.2653 -104.4331 280° West 213 245 26,000  Level Salt Lake Center
02:43PM 46.2756 -104.5181 280° West 213 245 26,000  Level Salt Lake Center
02:44PM 46.2847 -104.6022 279° West 213 245 26,000  Level Salt Lake Center
02:45PM 46.2947 -104.6858 280° West 213 245 26,000  Level Salt Lake Center
02:46PM 46.3056 -104.7864 279° West 212 244 26,000  Level Salt Lake Center
02:47PM 46.3156 -104.8700 280° West 212 244 26,000 -540 Level Salt Lake Center
02:48PM 46.3256 -104.9561 280° West 212 244 25,000 -1,380 Descending Salt Lake Center
02:49PM 46.3356 -105.0461 279° West 218 251 23,200 -1,800 Descending Salt Lake Center
02:50PM 46.3456 -105.1375 279° West 222 255 21,400 -1,800 Descending Salt Lake Center
02:51PM 46.3553 -105.2269 279° West 225 259 19,600 -1,920 Descending Salt Lake Center
02:52PM 46.3656 -105.3136 280° West 224 258 17,500 -2,100 Descending Salt Lake Center
02:53PM 46.3764 -105.4169 279° West 221 254 15,300 -2,160 Descending Salt Lake Center
02:55PM 46.3813 -105.5115 274° West  Level FlightAware Approximate
03:02PM 46.4167 -105.8833 270° West  Level FlightAware Approximate
03:03PM 46.4280 -105.8863 270° West  Level Estimated
03:04PM 46.4280 -105.8863 270° West  Level Estimated
03:05PM 46.4280 -105.8863 270° West  Level Estimated
03:06PM 46.4280 -105.8863 270° West  Level Estimated
03:07PM 46.4280 -105.8863 270° West  Level Estimated
03:08PM 46.4280 -105.8863 270° West  Level Estimated
03:09PM 46.4280 -105.8863 270° West  Level Estimated
03:10PM 46.4280 -105.8863 270° West  Level Estimated
03:11PM 46.4280 -105.8863 270° West  Level Estimated
03:12PM 46.4280 -105.8863 270° West  Level Estimated
03:13PM 46.4280 -105.8863 270° West  Level Estimated
03:14PM 46.4280 -105.8863 270° West  Level Estimated
03:15PM 46.4280 -105.8863 270° West  Level Estimated